Carlsbad, NM

4:12 AM MDT on August 31, 2015 (GMT -0600)
Cavern City | | Change Station
CLOSE
Current Station
Airport
Location: Carlsbad,
Elevation: 3294 ft
Nearby Weather Stations

Elev 3294 ft 32.33 °N, 104.26 °W | Updated 19 minutes ago

Clear
Clear
65 °F
Feels Like 65 °F
N
7
Wind Variable Wind from South

Today
High -- | Low -- °F
--% Chance of Precip.
Yesterday
High -- | Low -- °F
Precip. -- in
6:31 AM 7:22 PM
Waning Gibbous, 96% visible
Pressure 29.85 in
Visibility 10.0 miles
Clouds Clear
Dew Point 48 °F
Humidity 54%
Rainfall 0.00 in
Snow Depth Not available.
UV 0 out of 12
Pollen 8.50 out of 12
Air Quality Not available.
Flu Activity Not available.
METAR KCNM 310953Z AUTO 18006KT 10SM CLR 18/09 A3002 RMK AO2 SLP108 T01830089 $
Pressure 29.85 in
Visibility 10.0 miles
Clouds Clear
Dew Point 48 °F
Humidity 54%
Rainfall 0.00 in
Snow Depth Not available.
UV 0 out of 12
Pollen 8.50 out of 12
Air Quality Not available.
Flu Activity Not available.
METAR KCNM 310953Z AUTO 18006KT 10SM CLR 18/09 A3002 RMK AO2 SLP108 T01830089 $

10-Day Weather Forecast

×

Almanac

Astronomy

Aug. 31, 2015 Rise Set
Actual Time
Civil Twilight
Nautical Twilight
Astronomical Twilight
Moon
Length of Visible Light
Length of Day
Tomorrow will be .
, % of the Moon is Illuminated

Today's Extremes

State Highs State Lows

Community

WunderPhotos

Upload Photos

1,851,229 photos uploaded!

WunderBlogs® & News

Nearby

Air Quality

  Air Quality AQ Index Pollutant
Not available.

Snow Depth

Station Depth Elevation

Earthquake Activity

City Distance Mag. Time & Date
Minimum magnitude displayed is 2.5.

Coastal Water Temperatures

Place Temperature

Stations

Nearby Weather Stations

Station Location Temp. Windchill Dew Point Humidity Wind Precip. Elev Updated Type